sensor_id;sensor_type;location;lat;lon;timestamp;P1;durP1;ratioP1;P2;durP2;ratioP2
20814;SDS011;10568;48.176;16.316;2023-12-29T00:00:30;16.20;;;9.37;;
20814;SDS011;10568;48.176;16.316;2023-12-29T00:02:57;15.83;;;10.13;;
20814;SDS011;10568;48.176;16.316;2023-12-29T00:05:24;18.77;;;9.77;;
20814;SDS011;10568;48.176;16.316;2023-12-29T00:07:53;23.80;;;10.53;;
20814;SDS011;10568;48.176;16.316;2023-12-29T00:10:20;16.53;;;10.03;;
20814;SDS011;10568;48.176;16.316;2023-12-29T00:12:47;17.20;;;10.10;;
20814;SDS011;10568;48.176;16.316;2023-12-29T00:15:18;19.73;;;9.83;;
20814;SDS011;10568;48.176;16.316;2023-12-29T00:17:45;17.53;;;9.67;;
20814;SDS011;10568;48.176;16.316;2023-12-29T00:20:14;17.87;;;10.20;;
20814;SDS011;10568;48.176;16.316;2023-12-29T00:22:59;19.97;;;10.03;;
20814;SDS011;10568;48.176;16.316;2023-12-29T00:25:26;16.53;;;10.50;;
20814;SDS011;10568;48.176;16.316;2023-12-29T00:27:53;16.57;;;10.23;;
20814;SDS011;10568;48.176;16.316;2023-12-29T00:30:20;16.63;;;9.53;;
20814;SDS011;10568;48.176;16.316;2023-12-29T00:32:47;16.50;;;10.17;;
20814;SDS011;10568;48.176;16.316;2023-12-29T00:35:15;13.73;;;9.60;;
20814;SDS011;10568;48.176;16.316;2023-12-29T00:37:42;15.73;;;9.63;;
20814;SDS011;10568;48.176;16.316;2023-12-29T00:40:09;20.13;;;10.63;;
20814;SDS011;10568;48.176;16.316;2023-12-29T00:42:38;18.17;;;9.40;;
20814;SDS011;10568;48.176;16.316;2023-12-29T00:45:05;16.97;;;9.87;;
20814;SDS011;10568;48.176;16.316;2023-12-29T00:47:33;16.53;;;9.17;;
20814;SDS011;10568;48.176;16.316;2023-12-29T00:50:01;15.60;;;10.10;;
20814;SDS011;10568;48.176;16.316;2023-12-29T00:52:28;15.73;;;9.50;;
20814;SDS011;10568;48.176;16.316;2023-12-29T00:54:55;16.70;;;10.30;;
20814;SDS011;10568;48.176;16.316;2023-12-29T00:57:22;20.00;;;10.13;;
20814;SDS011;10568;48.176;16.316;2023-12-29T00:59:49;17.67;;;10.27;;
20814;SDS011;10568;48.176;16.316;2023-12-29T01:02:16;15.27;;;10.43;;
20814;SDS011;10568;48.176;16.316;2023-12-29T01:04:43;17.23;;;9.57;;
20814;SDS011;10568;48.176;16.316;2023-12-29T01:07:11;16.13;;;9.20;;
20814;SDS011;10568;48.176;16.316;2023-12-29T01:09:38;15.43;;;9.27;;
20814;SDS011;10568;48.176;16.316;2023-12-29T01:12:06;14.30;;;9.30;;
20814;SDS011;10568;48.176;16.316;2023-12-29T01:14:34;14.57;;;8.73;;
20814;SDS011;10568;48.176;16.316;2023-12-29T01:17:02;17.37;;;10.43;;
20814;SDS011;10568;48.176;16.316;2023-12-29T01:19:29;17.33;;;9.53;;
20814;SDS011;10568;48.176;16.316;2023-12-29T01:21:57;19.23;;;10.30;;
20814;SDS011;10568;48.176;16.316;2023-12-29T01:24:24;16.37;;;10.03;;
20814;SDS011;10568;48.176;16.316;2023-12-29T01:27:01;16.13;;;9.00;;
20814;SDS011;10568;48.176;16.316;2023-12-29T01:29:30;17.97;;;9.13;;
20814;SDS011;10568;48.176;16.316;2023-12-29T01:31:57;15.67;;;9.40;;
20814;SDS011;10568;48.176;16.316;2023-12-29T01:34:25;16.53;;;9.00;;
20814;SDS011;10568;48.176;16.316;2023-12-29T01:36:59;14.37;;;8.63;;
20814;SDS011;10568;48.176;16.316;2023-12-29T01:39:33;11.50;;;7.33;;
20814;SDS011;10568;48.176;16.316;2023-12-29T01:42:01;14.43;;;9.13;;
20814;SDS011;10568;48.176;16.316;2023-12-29T01:44:29;14.17;;;8.97;;
20814;SDS011;10568;48.176;16.316;2023-12-29T01:46:56;14.40;;;8.83;;
20814;SDS011;10568;48.176;16.316;2023-12-29T01:49:26;13.13;;;9.10;;
20814;SDS011;10568;48.176;16.316;2023-12-29T01:51:57;13.17;;;8.53;;
20814;SDS011;10568;48.176;16.316;2023-12-29T01:54:26;11.67;;;7.83;;
20814;SDS011;10568;48.176;16.316;2023-12-29T01:56:56;15.43;;;8.57;;
20814;SDS011;10568;48.176;16.316;2023-12-29T01:59:26;13.50;;;8.90;;
20814;SDS011;10568;48.176;16.316;2023-12-29T02:01:54;14.80;;;9.33;;
20814;SDS011;10568;48.176;16.316;2023-12-29T02:04:26;16.40;;;8.67;;
20814;SDS011;10568;48.176;16.316;2023-12-29T02:06:54;13.70;;;9.50;;
20814;SDS011;10568;48.176;16.316;2023-12-29T02:09:24;11.87;;;8.37;;
20814;SDS011;10568;48.176;16.316;2023-12-29T02:11:51;14.00;;;8.93;;
20814;SDS011;10568;48.176;16.316;2023-12-29T02:14:18;13.13;;;8.10;;
20814;SDS011;10568;48.176;16.316;2023-12-29T02:17:08;14.40;;;8.30;;
20814;SDS011;10568;48.176;16.316;2023-12-29T02:19:46;11.93;;;7.93;;
20814;SDS011;10568;48.176;16.316;2023-12-29T02:22:16;16.33;;;8.70;;
20814;SDS011;10568;48.176;16.316;2023-12-29T02:24:45;14.70;;;8.53;;
20814;SDS011;10568;48.176;16.316;2023-12-29T02:30:10;9.67;;;7.47;;
20814;SDS011;10568;48.176;16.316;2023-12-29T02:33:02;16.33;;;8.80;;
20814;SDS011;10568;48.176;16.316;2023-12-29T02:35:33;16.17;;;8.63;;
20814;SDS011;10568;48.176;16.316;2023-12-29T02:38:04;12.17;;;8.47;;
20814;SDS011;10568;48.176;16.316;2023-12-29T02:40:33;11.87;;;7.97;;
20814;SDS011;10568;48.176;16.316;2023-12-29T02:43:00;10.57;;;7.80;;
20814;SDS011;10568;48.176;16.316;2023-12-29T02:45:27;12.93;;;8.30;;
20814;SDS011;10568;48.176;16.316;2023-12-29T02:47:55;11.87;;;8.33;;
20814;SDS011;10568;48.176;16.316;2023-12-29T02:50:23;16.50;;;9.13;;
20814;SDS011;10568;48.176;16.316;2023-12-29T02:52:50;12.80;;;8.23;;
20814;SDS011;10568;48.176;16.316;2023-12-29T02:55:17;17.37;;;9.53;;
20814;SDS011;10568;48.176;16.316;2023-12-29T02:57:45;13.30;;;8.40;;
20814;SDS011;10568;48.176;16.316;2023-12-29T03:00:12;10.57;;;7.87;;
20814;SDS011;10568;48.176;16.316;2023-12-29T03:02:39;12.73;;;8.13;;
20814;SDS011;10568;48.176;16.316;2023-12-29T03:05:07;13.00;;;8.80;;
20814;SDS011;10568;48.176;16.316;2023-12-29T03:07:34;13.60;;;7.83;;
20814;SDS011;10568;48.176;16.316;2023-12-29T03:10:02;13.60;;;8.60;;
20814;SDS011;10568;48.176;16.316;2023-12-29T03:12:29;12.67;;;8.07;;
20814;SDS011;10568;48.176;16.316;2023-12-29T03:14:57;12.77;;;8.50;;
20814;SDS011;10568;48.176;16.316;2023-12-29T03:17:25;11.67;;;7.70;;
20814;SDS011;10568;48.176;16.316;2023-12-29T03:19:52;13.90;;;8.17;;
20814;SDS011;10568;48.176;16.316;2023-12-29T03:22:21;12.07;;;7.27;;
20814;SDS011;10568;48.176;16.316;2023-12-29T03:24:48;12.63;;;7.67;;
20814;SDS011;10568;48.176;16.316;2023-12-29T03:27:15;15.10;;;8.47;;
20814;SDS011;10568;48.176;16.316;2023-12-29T03:29:43;14.83;;;8.60;;
20814;SDS011;10568;48.176;16.316;2023-12-29T03:32:11;13.80;;;7.87;;
20814;SDS011;10568;48.176;16.316;2023-12-29T03:34:38;12.93;;;8.90;;
20814;SDS011;10568;48.176;16.316;2023-12-29T03:37:05;13.13;;;8.77;;
20814;SDS011;10568;48.176;16.316;2023-12-29T03:39:32;12.60;;;8.03;;
20814;SDS011;10568;48.176;16.316;2023-12-29T03:42:03;15.17;;;8.83;;
20814;SDS011;10568;48.176;16.316;2023-12-29T03:44:30;13.20;;;8.83;;
20814;SDS011;10568;48.176;16.316;2023-12-29T03:46:57;13.43;;;8.03;;
20814;SDS011;10568;48.176;16.316;2023-12-29T03:49:25;13.00;;;8.60;;
20814;SDS011;10568;48.176;16.316;2023-12-29T03:51:52;13.23;;;8.47;;
20814;SDS011;10568;48.176;16.316;2023-12-29T03:54:19;13.43;;;8.00;;
20814;SDS011;10568;48.176;16.316;2023-12-29T03:56:48;15.23;;;8.43;;
20814;SDS011;10568;48.176;16.316;2023-12-29T03:59:15;14.10;;;9.20;;
20814;SDS011;10568;48.176;16.316;2023-12-29T04:01:42;12.57;;;8.57;;
20814;SDS011;10568;48.176;16.316;2023-12-29T04:04:10;13.27;;;8.20;;
20814;SDS011;10568;48.176;16.316;2023-12-29T04:06:38;10.50;;;7.80;;
20814;SDS011;10568;48.176;16.316;2023-12-29T04:09:05;14.93;;;8.90;;
20814;SDS011;10568;48.176;16.316;2023-12-29T04:11:32;15.13;;;8.53;;
20814;SDS011;10568;48.176;16.316;2023-12-29T04:14:00;11.83;;;7.93;;
20814;SDS011;10568;48.176;16.316;2023-12-29T04:16:27;12.87;;;8.40;;
20814;SDS011;10568;48.176;16.316;2023-12-29T04:18:54;13.60;;;8.40;;
20814;SDS011;10568;48.176;16.316;2023-12-29T04:21:22;15.13;;;8.37;;
20814;SDS011;10568;48.176;16.316;2023-12-29T04:23:49;13.33;;;8.37;;
20814;SDS011;10568;48.176;16.316;2023-12-29T04:26:16;13.00;;;8.63;;
20814;SDS011;10568;48.176;16.316;2023-12-29T04:28:43;13.63;;;8.90;;
20814;SDS011;10568;48.176;16.316;2023-12-29T04:31:10;14.77;;;8.07;;
20814;SDS011;10568;48.176;16.316;2023-12-29T04:33:38;11.73;;;7.40;;
20814;SDS011;10568;48.176;16.316;2023-12-29T04:36:05;7.77;;;5.07;;
20814;SDS011;10568;48.176;16.316;2023-12-29T04:38:33;9.23;;;5.63;;
20814;SDS011;10568;48.176;16.316;2023-12-29T04:41:00;9.37;;;5.67;;
20814;SDS011;10568;48.176;16.316;2023-12-29T04:43:27;5.93;;;4.80;;
20814;SDS011;10568;48.176;16.316;2023-12-29T04:45:55;5.77;;;3.93;;
20814;SDS011;10568;48.176;16.316;2023-12-29T04:48:23;6.00;;;4.00;;
20814;SDS011;10568;48.176;16.316;2023-12-29T04:50:50;5.97;;;3.27;;
20814;SDS011;10568;48.176;16.316;2023-12-29T04:53:18;9.27;;;4.27;;
20814;SDS011;10568;48.176;16.316;2023-12-29T04:55:45;8.70;;;5.30;;
20814;SDS011;10568;48.176;16.316;2023-12-29T04:58:12;8.97;;;5.20;;
20814;SDS011;10568;48.176;16.316;2023-12-29T05:00:39;7.93;;;5.03;;
20814;SDS011;10568;48.176;16.316;2023-12-29T05:03:07;8.20;;;5.87;;
20814;SDS011;10568;48.176;16.316;2023-12-29T05:05:34;12.40;;;6.50;;
20814;SDS011;10568;48.176;16.316;2023-12-29T05:08:01;9.87;;;6.50;;
20814;SDS011;10568;48.176;16.316;2023-12-29T05:10:28;10.90;;;6.50;;
20814;SDS011;10568;48.176;16.316;2023-12-29T05:12:56;5.53;;;4.30;;
20814;SDS011;10568;48.176;16.316;2023-12-29T05:15:23;4.50;;;2.83;;
20814;SDS011;10568;48.176;16.316;2023-12-29T05:17:50;6.73;;;4.53;;
20814;SDS011;10568;48.176;16.316;2023-12-29T05:20:19;5.40;;;3.43;;
20814;SDS011;10568;48.176;16.316;2023-12-29T05:22:46;5.43;;;3.70;;
20814;SDS011;10568;48.176;16.316;2023-12-29T05:25:13;4.43;;;2.93;;
20814;SDS011;10568;48.176;16.316;2023-12-29T05:27:40;2.97;;;2.50;;
20814;SDS011;10568;48.176;16.316;2023-12-29T05:30:08;2.20;;;1.53;;
20814;SDS011;10568;48.176;16.316;2023-12-29T05:32:36;1.60;;;1.33;;
20814;SDS011;10568;48.176;16.316;2023-12-29T05:35:03;1.93;;;1.33;;
20814;SDS011;10568;48.176;16.316;2023-12-29T05:37:31;1.70;;;1.33;;
20814;SDS011;10568;48.176;16.316;2023-12-29T05:39:58;1.27;;;1.10;;
20814;SDS011;10568;48.176;16.316;2023-12-29T05:42:25;2.03;;;1.30;;
20814;SDS011;10568;48.176;16.316;2023-12-29T05:44:52;2.80;;;1.53;;
20814;SDS011;10568;48.176;16.316;2023-12-29T05:47:19;2.50;;;1.50;;
20814;SDS011;10568;48.176;16.316;2023-12-29T05:49:46;2.77;;;1.80;;
20814;SDS011;10568;48.176;16.316;2023-12-29T05:52:14;2.40;;;1.73;;
20814;SDS011;10568;48.176;16.316;2023-12-29T05:54:41;5.53;;;3.77;;
20814;SDS011;10568;48.176;16.316;2023-12-29T05:57:08;6.40;;;4.10;;
20814;SDS011;10568;48.176;16.316;2023-12-29T05:59:36;8.93;;;5.70;;
20814;SDS011;10568;48.176;16.316;2023-12-29T06:02:03;10.80;;;6.87;;
20814;SDS011;10568;48.176;16.316;2023-12-29T06:04:30;10.73;;;7.10;;
20814;SDS011;10568;48.176;16.316;2023-12-29T06:06:57;13.07;;;8.03;;
20814;SDS011;10568;48.176;16.316;2023-12-29T06:09:24;11.90;;;7.37;;
20814;SDS011;10568;48.176;16.316;2023-12-29T06:11:52;12.20;;;8.03;;
20814;SDS011;10568;48.176;16.316;2023-12-29T06:14:19;14.30;;;8.37;;
20814;SDS011;10568;48.176;16.316;2023-12-29T06:16:46;12.00;;;8.17;;
20814;SDS011;10568;48.176;16.316;2023-12-29T06:19:13;12.30;;;7.97;;
20814;SDS011;10568;48.176;16.316;2023-12-29T06:21:41;11.67;;;7.23;;
20814;SDS011;10568;48.176;16.316;2023-12-29T06:24:12;10.17;;;7.70;;
20814;SDS011;10568;48.176;16.316;2023-12-29T06:26:39;13.67;;;7.87;;
20814;SDS011;10568;48.176;16.316;2023-12-29T06:29:10;12.87;;;8.40;;
20814;SDS011;10568;48.176;16.316;2023-12-29T06:31:40;11.83;;;7.70;;
20814;SDS011;10568;48.176;16.316;2023-12-29T06:34:09;10.50;;;6.87;;
20814;SDS011;10568;48.176;16.316;2023-12-29T06:36:37;11.07;;;7.50;;
20814;SDS011;10568;48.176;16.316;2023-12-29T06:39:04;11.30;;;6.97;;
20814;SDS011;10568;48.176;16.316;2023-12-29T06:41:32;12.27;;;6.77;;
20814;SDS011;10568;48.176;16.316;2023-12-29T06:44:00;10.87;;;7.33;;
20814;SDS011;10568;48.176;16.316;2023-12-29T06:46:27;10.10;;;6.70;;
20814;SDS011;10568;48.176;16.316;2023-12-29T06:48:54;9.83;;;6.67;;
20814;SDS011;10568;48.176;16.316;2023-12-29T06:51:22;11.57;;;6.87;;
20814;SDS011;10568;48.176;16.316;2023-12-29T06:53:50;10.77;;;6.77;;
20814;SDS011;10568;48.176;16.316;2023-12-29T06:56:17;11.27;;;6.17;;
20814;SDS011;10568;48.176;16.316;2023-12-29T06:58:45;10.80;;;6.40;;
20814;SDS011;10568;48.176;16.316;2023-12-29T07:01:12;9.47;;;6.50;;
20814;SDS011;10568;48.176;16.316;2023-12-29T07:03:40;12.87;;;7.60;;
20814;SDS011;10568;48.176;16.316;2023-12-29T07:06:09;11.13;;;6.97;;
20814;SDS011;10568;48.176;16.316;2023-12-29T07:08:36;9.40;;;6.57;;
20814;SDS011;10568;48.176;16.316;2023-12-29T07:11:04;9.80;;;6.17;;
20814;SDS011;10568;48.176;16.316;2023-12-29T07:13:36;13.33;;;6.57;;
20814;SDS011;10568;48.176;16.316;2023-12-29T07:16:04;9.57;;;6.20;;
20814;SDS011;10568;48.176;16.316;2023-12-29T07:18:31;10.17;;;6.17;;
20814;SDS011;10568;48.176;16.316;2023-12-29T07:20:59;10.03;;;6.80;;
20814;SDS011;10568;48.176;16.316;2023-12-29T07:23:26;8.30;;;6.20;;
20814;SDS011;10568;48.176;16.316;2023-12-29T07:25:53;10.60;;;6.77;;
20814;SDS011;10568;48.176;16.316;2023-12-29T07:28:20;11.73;;;7.50;;
20814;SDS011;10568;48.176;16.316;2023-12-29T07:30:47;11.03;;;7.17;;
20814;SDS011;10568;48.176;16.316;2023-12-29T07:33:15;13.47;;;7.37;;
20814;SDS011;10568;48.176;16.316;2023-12-29T07:35:43;13.33;;;8.03;;
20814;SDS011;10568;48.176;16.316;2023-12-29T07:38:11;12.17;;;7.70;;
20814;SDS011;10568;48.176;16.316;2023-12-29T07:40:38;13.57;;;8.33;;
20814;SDS011;10568;48.176;16.316;2023-12-29T07:43:05;10.67;;;6.83;;
20814;SDS011;10568;48.176;16.316;2023-12-29T07:45:34;11.97;;;7.57;;
20814;SDS011;10568;48.176;16.316;2023-12-29T07:48:01;10.63;;;6.93;;
20814;SDS011;10568;48.176;16.316;2023-12-29T07:50:32;10.70;;;6.53;;
20814;SDS011;10568;48.176;16.316;2023-12-29T07:53:00;11.47;;;6.57;;
20814;SDS011;10568;48.176;16.316;2023-12-29T07:55:30;11.80;;;7.30;;
20814;SDS011;10568;48.176;16.316;2023-12-29T07:57:57;10.90;;;7.27;;
20814;SDS011;10568;48.176;16.316;2023-12-29T08:00:25;10.63;;;7.70;;
20814;SDS011;10568;48.176;16.316;2023-12-29T08:02:53;13.00;;;7.67;;
20814;SDS011;10568;48.176;16.316;2023-12-29T08:05:20;10.83;;;6.20;;
20814;SDS011;10568;48.176;16.316;2023-12-29T08:07:47;7.80;;;5.53;;
20814;SDS011;10568;48.176;16.316;2023-12-29T08:10:14;8.60;;;5.33;;
20814;SDS011;10568;48.176;16.316;2023-12-29T08:12:42;9.20;;;5.97;;
20814;SDS011;10568;48.176;16.316;2023-12-29T08:15:09;9.23;;;5.27;;
20814;SDS011;10568;48.176;16.316;2023-12-29T08:17:36;11.80;;;6.53;;
20814;SDS011;10568;48.176;16.316;2023-12-29T08:20:05;10.43;;;6.10;;
20814;SDS011;10568;48.176;16.316;2023-12-29T08:22:33;9.20;;;5.83;;
20814;SDS011;10568;48.176;16.316;2023-12-29T08:25:00;10.13;;;5.30;;
20814;SDS011;10568;48.176;16.316;2023-12-29T08:27:28;8.70;;;5.43;;
20814;SDS011;10568;48.176;16.316;2023-12-29T08:29:55;8.93;;;5.37;;
20814;SDS011;10568;48.176;16.316;2023-12-29T08:32:22;10.80;;;4.67;;
20814;SDS011;10568;48.176;16.316;2023-12-29T08:34:49;10.20;;;4.90;;
20814;SDS011;10568;48.176;16.316;2023-12-29T08:37:17;6.97;;;4.80;;
20814;SDS011;10568;48.176;16.316;2023-12-29T08:39:47;9.07;;;5.43;;
20814;SDS011;10568;48.176;16.316;2023-12-29T08:42:15;7.60;;;5.00;;
20814;SDS011;10568;48.176;16.316;2023-12-29T08:44:43;8.10;;;4.87;;
20814;SDS011;10568;48.176;16.316;2023-12-29T08:47:10;6.83;;;5.03;;
20814;SDS011;10568;48.176;16.316;2023-12-29T08:49:37;5.87;;;4.30;;
20814;SDS011;10568;48.176;16.316;2023-12-29T08:52:05;6.90;;;4.80;;
20814;SDS011;10568;48.176;16.316;2023-12-29T08:54:32;7.23;;;4.83;;
20814;SDS011;10568;48.176;16.316;2023-12-29T08:57:00;7.87;;;4.40;;
20814;SDS011;10568;48.176;16.316;2023-12-29T08:59:27;8.80;;;5.20;;
20814;SDS011;10568;48.176;16.316;2023-12-29T09:01:55;8.47;;;5.40;;
20814;SDS011;10568;48.176;16.316;2023-12-29T09:04:23;7.80;;;4.90;;
20814;SDS011;10568;48.176;16.316;2023-12-29T09:06:50;8.20;;;4.97;;
20814;SDS011;10568;48.176;16.316;2023-12-29T09:09:17;9.93;;;5.63;;
20814;SDS011;10568;48.176;16.316;2023-12-29T09:11:44;7.50;;;5.07;;
20814;SDS011;10568;48.176;16.316;2023-12-29T09:14:13;6.77;;;5.03;;
20814;SDS011;10568;48.176;16.316;2023-12-29T09:16:41;10.97;;;5.70;;
20814;SDS011;10568;48.176;16.316;2023-12-29T09:19:10;11.03;;;5.30;;
20814;SDS011;10568;48.176;16.316;2023-12-29T09:21:40;10.03;;;5.03;;
20814;SDS011;10568;48.176;16.316;2023-12-29T09:24:07;7.70;;;4.93;;
20814;SDS011;10568;48.176;16.316;2023-12-29T09:26:34;9.67;;;5.30;;
20814;SDS011;10568;48.176;16.316;2023-12-29T09:29:01;7.40;;;4.83;;
20814;SDS011;10568;48.176;16.316;2023-12-29T09:31:29;6.80;;;4.53;;
20814;SDS011;10568;48.176;16.316;2023-12-29T09:33:56;9.20;;;5.03;;
20814;SDS011;10568;48.176;16.316;2023-12-29T09:36:23;7.80;;;4.93;;
20814;SDS011;10568;48.176;16.316;2023-12-29T09:38:51;8.23;;;4.63;;
20814;SDS011;10568;48.176;16.316;2023-12-29T09:41:18;7.83;;;4.83;;
20814;SDS011;10568;48.176;16.316;2023-12-29T09:43:49;8.73;;;5.07;;
20814;SDS011;10568;48.176;16.316;2023-12-29T09:46:18;9.30;;;4.70;;
20814;SDS011;10568;48.176;16.316;2023-12-29T09:48:48;8.47;;;5.37;;
20814;SDS011;10568;48.176;16.316;2023-12-29T09:51:22;10.13;;;5.10;;
20814;SDS011;10568;48.176;16.316;2023-12-29T09:53:50;9.07;;;5.17;;
20814;SDS011;10568;48.176;16.316;2023-12-29T09:56:19;8.73;;;4.57;;
20814;SDS011;10568;48.176;16.316;2023-12-29T09:58:47;11.80;;;5.37;;
20814;SDS011;10568;48.176;16.316;2023-12-29T10:01:14;8.37;;;4.80;;
20814;SDS011;10568;48.176;16.316;2023-12-29T10:03:46;9.77;;;5.47;;
20814;SDS011;10568;48.176;16.316;2023-12-29T10:06:16;8.93;;;4.20;;
20814;SDS011;10568;48.176;16.316;2023-12-29T10:08:50;7.60;;;4.53;;
20814;SDS011;10568;48.176;16.316;2023-12-29T10:11:18;9.40;;;4.33;;
20814;SDS011;10568;48.176;16.316;2023-12-29T10:13:49;5.90;;;3.97;;
20814;SDS011;10568;48.176;16.316;2023-12-29T10:19:10;6.83;;;4.00;;
20814;SDS011;10568;48.176;16.316;2023-12-29T10:22:08;6.43;;;4.40;;
20814;SDS011;10568;48.176;16.316;2023-12-29T10:24:56;7.33;;;4.23;;
20814;SDS011;10568;48.176;16.316;2023-12-29T10:27:25;7.97;;;4.23;;
20814;SDS011;10568;48.176;16.316;2023-12-29T10:29:53;7.43;;;4.20;;
20814;SDS011;10568;48.176;16.316;2023-12-29T10:32:25;5.30;;;3.77;;
20814;SDS011;10568;48.176;16.316;2023-12-29T10:35:08;7.17;;;3.77;;
20814;SDS011;10568;48.176;16.316;2023-12-29T10:37:37;6.97;;;3.77;;
20814;SDS011;10568;48.176;16.316;2023-12-29T10:40:05;6.30;;;3.30;;
20814;SDS011;10568;48.176;16.316;2023-12-29T10:42:33;4.27;;;3.27;;
20814;SDS011;10568;48.176;16.316;2023-12-29T10:45:07;4.07;;;2.70;;
20814;SDS011;10568;48.176;16.316;2023-12-29T10:47:36;2.60;;;1.73;;
20814;SDS011;10568;48.176;16.316;2023-12-29T10:50:05;1.90;;;1.60;;
20814;SDS011;10568;48.176;16.316;2023-12-29T10:52:32;1.37;;;0.90;;
20814;SDS011;10568;48.176;16.316;2023-12-29T10:55:03;1.37;;;1.00;;
20814;SDS011;10568;48.176;16.316;2023-12-29T10:57:32;1.07;;;0.70;;
20814;SDS011;10568;48.176;16.316;2023-12-29T11:00:00;1.53;;;0.80;;
20814;SDS011;10568;48.176;16.316;2023-12-29T11:02:27;1.50;;;0.70;;
20814;SDS011;10568;48.176;16.316;2023-12-29T11:05:02;1.13;;;0.80;;
20814;SDS011;10568;48.176;16.316;2023-12-29T11:07:34;0.73;;;0.60;;
20814;SDS011;10568;48.176;16.316;2023-12-29T11:10:03;2.20;;;0.70;;
20814;SDS011;10568;48.176;16.316;2023-12-29T11:12:35;1.20;;;0.87;;
20814;SDS011;10568;48.176;16.316;2023-12-29T11:15:04;1.07;;;0.73;;
20814;SDS011;10568;48.176;16.316;2023-12-29T11:17:34;1.53;;;0.90;;
20814;SDS011;10568;48.176;16.316;2023-12-29T11:20:03;1.37;;;0.80;;
20814;SDS011;10568;48.176;16.316;2023-12-29T11:22:32;0.90;;;0.70;;
20814;SDS011;10568;48.176;16.316;2023-12-29T11:25:00;1.30;;;0.97;;
20814;SDS011;10568;48.176;16.316;2023-12-29T11:27:28;1.13;;;0.70;;
20814;SDS011;10568;48.176;16.316;2023-12-29T11:30:00;0.60;;;0.60;;
20814;SDS011;10568;48.176;16.316;2023-12-29T11:35:12;3.30;;;0.83;;
20814;SDS011;10568;48.176;16.316;2023-12-29T11:40:25;1.37;;;0.70;;
20814;SDS011;10568;48.176;16.316;2023-12-29T11:43:00;0.77;;;0.57;;
20814;SDS011;10568;48.176;16.316;2023-12-29T11:45:33;0.70;;;0.53;;
20814;SDS011;10568;48.176;16.316;2023-12-29T11:48:02;0.60;;;0.53;;
20814;SDS011;10568;48.176;16.316;2023-12-29T11:53:07;0.40;;;0.40;;
20814;SDS011;10568;48.176;16.316;2023-12-29T11:55:38;0.63;;;0.53;;
20814;SDS011;10568;48.176;16.316;2023-12-29T11:58:24;0.70;;;0.70;;
20814;SDS011;10568;48.176;16.316;2023-12-29T12:00:56;0.77;;;0.63;;
20814;SDS011;10568;48.176;16.316;2023-12-29T12:03:24;0.70;;;0.70;;
20814;SDS011;10568;48.176;16.316;2023-12-29T12:05:53;0.90;;;0.60;;
20814;SDS011;10568;48.176;16.316;2023-12-29T12:08:29;0.80;;;0.60;;
20814;SDS011;10568;48.176;16.316;2023-12-29T12:10:56;0.93;;;0.70;;
20814;SDS011;10568;48.176;16.316;2023-12-29T12:19:43;0.80;;;0.70;;
20814;SDS011;10568;48.176;16.316;2023-12-29T12:22:10;0.80;;;0.80;;
20814;SDS011;10568;48.176;16.316;2023-12-29T12:24:38;2.17;;;0.90;;
20814;SDS011;10568;48.176;16.316;2023-12-29T12:27:09;0.83;;;0.70;;
20814;SDS011;10568;48.176;16.316;2023-12-29T12:29:37;1.07;;;0.80;;
20814;SDS011;10568;48.176;16.316;2023-12-29T12:32:04;1.30;;;0.70;;
20814;SDS011;10568;48.176;16.316;2023-12-29T12:34:37;1.73;;;0.93;;
20814;SDS011;10568;48.176;16.316;2023-12-29T12:37:06;0.93;;;0.80;;
20814;SDS011;10568;48.176;16.316;2023-12-29T12:39:40;1.10;;;0.77;;
20814;SDS011;10568;48.176;16.316;2023-12-29T12:42:08;1.20;;;0.80;;
20814;SDS011;10568;48.176;16.316;2023-12-29T12:44:38;1.03;;;0.70;;
20814;SDS011;10568;48.176;16.316;2023-12-29T12:47:08;1.50;;;0.80;;
20814;SDS011;10568;48.176;16.316;2023-12-29T12:49:44;1.30;;;0.83;;
20814;SDS011;10568;48.176;16.316;2023-12-29T12:52:12;1.63;;;1.00;;
20814;SDS011;10568;48.176;16.316;2023-12-29T12:54:39;1.07;;;0.70;;
20814;SDS011;10568;48.176;16.316;2023-12-29T12:57:07;1.27;;;0.73;;
20814;SDS011;10568;48.176;16.316;2023-12-29T12:59:34;1.17;;;0.80;;
20814;SDS011;10568;48.176;16.316;2023-12-29T13:02:02;1.03;;;0.50;;
20814;SDS011;10568;48.176;16.316;2023-12-29T13:04:32;1.10;;;0.70;;
20814;SDS011;10568;48.176;16.316;2023-12-29T13:07:00;1.53;;;0.90;;
20814;SDS011;10568;48.176;16.316;2023-12-29T13:09:27;0.70;;;0.67;;
20814;SDS011;10568;48.176;16.316;2023-12-29T13:12:08;0.80;;;0.70;;
20814;SDS011;10568;48.176;16.316;2023-12-29T13:14:37;0.77;;;0.60;;
20814;SDS011;10568;48.176;16.316;2023-12-29T13:17:11;0.77;;;0.60;;
20814;SDS011;10568;48.176;16.316;2023-12-29T13:19:40;1.27;;;0.73;;
20814;SDS011;10568;48.176;16.316;2023-12-29T13:22:10;1.00;;;0.73;;
20814;SDS011;10568;48.176;16.316;2023-12-29T13:24:45;1.10;;;0.60;;
20814;SDS011;10568;48.176;16.316;2023-12-29T13:27:13;0.70;;;0.50;;
20814;SDS011;10568;48.176;16.316;2023-12-29T13:29:41;1.03;;;0.60;;
20814;SDS011;10568;48.176;16.316;2023-12-29T13:32:16;1.63;;;0.90;;
20814;SDS011;10568;48.176;16.316;2023-12-29T13:35:01;1.60;;;1.00;;
20814;SDS011;10568;48.176;16.316;2023-12-29T13:37:46;2.33;;;1.00;;
20814;SDS011;10568;48.176;16.316;2023-12-29T13:40:35;1.60;;;0.80;;
20814;SDS011;10568;48.176;16.316;2023-12-29T13:43:07;0.63;;;0.63;;
20814;SDS011;10568;48.176;16.316;2023-12-29T13:45:37;1.37;;;0.90;;
20814;SDS011;10568;48.176;16.316;2023-12-29T13:48:09;1.80;;;0.87;;
20814;SDS011;10568;48.176;16.316;2023-12-29T13:50:39;1.93;;;0.80;;
20814;SDS011;10568;48.176;16.316;2023-12-29T13:53:08;1.37;;;0.90;;
20814;SDS011;10568;48.176;16.316;2023-12-29T13:55:35;0.83;;;0.80;;
20814;SDS011;10568;48.176;16.316;2023-12-29T13:58:08;1.37;;;0.87;;
20814;SDS011;10568;48.176;16.316;2023-12-29T14:00:37;1.10;;;0.90;;
20814;SDS011;10568;48.176;16.316;2023-12-29T14:03:10;4.20;;;1.13;;
20814;SDS011;10568;48.176;16.316;2023-12-29T14:05:59;1.20;;;1.00;;
20814;SDS011;10568;48.176;16.316;2023-12-29T14:08:38;2.00;;;1.10;;
20814;SDS011;10568;48.176;16.316;2023-12-29T14:11:07;2.57;;;1.30;;
20814;SDS011;10568;48.176;16.316;2023-12-29T14:13:46;1.90;;;1.10;;
20814;SDS011;10568;48.176;16.316;2023-12-29T14:16:17;2.47;;;1.50;;
20814;SDS011;10568;48.176;16.316;2023-12-29T14:18:54;3.83;;;1.23;;
20814;SDS011;10568;48.176;16.316;2023-12-29T14:21:31;0.97;;;0.87;;
20814;SDS011;10568;48.176;16.316;2023-12-29T14:26:42;1.77;;;1.03;;
20814;SDS011;10568;48.176;16.316;2023-12-29T14:29:23;1.43;;;1.00;;
20814;SDS011;10568;48.176;16.316;2023-12-29T14:31:51;1.27;;;0.63;;
20814;SDS011;10568;48.176;16.316;2023-12-29T14:34:19;0.87;;;0.80;;
20814;SDS011;10568;48.176;16.316;2023-12-29T14:36:47;1.53;;;0.87;;
20814;SDS011;10568;48.176;16.316;2023-12-29T14:39:14;1.37;;;0.77;;
20814;SDS011;10568;48.176;16.316;2023-12-29T14:41:44;1.17;;;0.70;;
20814;SDS011;10568;48.176;16.316;2023-12-29T14:44:12;1.87;;;1.10;;
20814;SDS011;10568;48.176;16.316;2023-12-29T14:46:39;1.03;;;0.90;;
20814;SDS011;10568;48.176;16.316;2023-12-29T14:49:08;1.00;;;0.90;;
20814;SDS011;10568;48.176;16.316;2023-12-29T14:51:36;0.80;;;0.77;;
20814;SDS011;10568;48.176;16.316;2023-12-29T14:54:04;0.70;;;0.60;;
20814;SDS011;10568;48.176;16.316;2023-12-29T14:56:32;1.37;;;0.93;;
20814;SDS011;10568;48.176;16.316;2023-12-29T14:58:59;1.23;;;0.83;;
20814;SDS011;10568;48.176;16.316;2023-12-29T15:01:26;1.03;;;0.80;;